Time;durP1;ratioP1;P1;durP2;ratioP2;P2;SDS_P1;SDS_P2;PMS_P1;PMS_P2;Temp;Humidity;BMP_temperature;BMP_pressure;BME280_temperature;BME280_humidity;BME280_pressure;Samples;Min_cycle;Max_cycle;Signal;HPM_P1;HPM_P2
2021/03/06 00:00:46;;;;;;;4.10;1.60;;;1.30;99.90;;;;;;5090319;28;20047;-62
2021/03/06 00:03:18;;;;;;;5.95;1.38;;;1.40;99.90;;;;;;5068612;28;20135;-62
2021/03/06 00:13:15;;;;;;;2.50;1.20;;;1.20;99.90;;;;;;5080360;28;20476;-62
2021/03/06 00:15:58;;;;;;;6.40;2.10;;;1.30;99.90;;;;;;5085917;28;20476;-62
2021/03/06 00:18:30;;;;;;;5.43;2.10;;;1.20;99.90;;;;;;5093548;28;20404;-62
2021/03/06 00:21:01;;;;;;;4.18;1.73;;;1.20;99.90;;;;;;5093539;28;20054;-62
2021/03/06 00:27:47;;;;;;;5.10;1.05;;;1.20;99.90;;;;;;5093654;28;20081;-62
2021/03/06 00:30:37;;;;;;;2.55;1.10;;;1.30;99.90;;;;;;5075768;28;20373;-62
2021/03/06 00:33:09;;;;;;;3.67;1.20;;;1.30;99.90;;;;;;5076410;28;20044;-62
2021/03/06 00:35:35;;;;;;;4.15;1.15;;;1.30;99.90;;;;;;5077200;28;20087;-63
2021/03/06 00:38:00;;;;;;;3.75;1.35;;;1.30;99.90;;;;;;5093161;28;20471;-62
2021/03/06 00:47:56;;;;;;;5.28;1.02;;;1.20;99.90;;;;;;5073838;28;20412;-62
2021/03/06 00:50:33;;;;;;;2.28;1.05;;;1.20;99.90;;;;;;5086452;28;20044;-62
2021/03/06 00:53:04;;;;;;;6.38;1.10;;;1.20;99.90;;;;;;5073875;28;20097;-63
2021/03/06 00:59:11;;;;;;;2.08;1.15;;;1.10;99.90;;;;;;5093137;28;20093;-63
2021/03/06 01:05:18;;;;;;;2.75;1.05;;;1.20;99.90;;;;;;5092964;28;20093;-62
2021/03/06 01:07:58;;;;;;;5.55;1.42;;;1.30;99.90;;;;;;5093010;28;20075;-62
2021/03/06 01:10:39;;;;;;;2.40;1.00;;;1.30;99.90;;;;;;5093285;28;20036;-62
2021/03/06 01:13:13;;;;;;;4.25;1.38;;;1.40;99.90;;;;;;5073845;28;20040;-62
2021/03/06 01:15:45;;;;;;;3.08;1.05;;;1.40;99.90;;;;;;5074465;28;20500;-62
2021/03/06 01:18:19;;;;;;;4.85;2.30;;;1.40;99.90;;;;;;5092930;28;20063;-62
2021/03/06 01:21:15;;;;;;;4.45;1.27;;;1.50;99.90;;;;;;5093014;28;20072;-62
2021/03/06 01:28:05;;;;;;;2.15;0.88;;;1.60;99.90;;;;;;5097021;28;20035;-63
2021/03/06 01:30:38;;;;;;;5.90;1.30;;;1.60;99.90;;;;;;5078492;28;20101;-63
2021/03/06 01:33:16;;;;;;;4.72;1.13;;;1.70;99.90;;;;;;5097316;28;20040;-62
2021/03/06 01:35:42;;;;;;;5.10;1.25;;;1.70;99.90;;;;;;5095713;28;20093;-63
2021/03/06 01:43:03;;;;;;;5.20;1.00;;;1.80;99.90;;;;;;5096858;28;20031;-62
2021/03/06 01:45:35;;;;;;;2.75;0.80;;;1.90;99.90;;;;;;5097048;28;20111;-63
2021/03/06 01:48:08;;;;;;;3.97;1.13;;;1.90;99.90;;;;;;5092898;28;20052;-63
2021/03/06 01:50:44;;;;;;;4.03;0.88;;;2.00;99.90;;;;;;5076553;28;20048;-62
2021/03/06 01:53:13;;;;;;;5.00;0.93;;;2.00;99.90;;;;;;5092321;28;20478;-63
2021/03/06 01:56:08;;;;;;;2.38;0.70;;;2.10;99.90;;;;;;5096709;28;20040;-63
2021/03/06 01:58:40;;;;;;;3.95;0.93;;;2.10;99.90;;;;;;5094284;28;20438;-62
2021/03/06 02:04:48;;;;;;;1.88;0.80;;;2.00;99.90;;;;;;5096154;28;20062;-62
2021/03/06 02:10:43;;;;;;;2.35;0.75;;;2.10;99.90;;;;;;5076676;28;20052;-62
2021/03/06 02:13:38;;;;;;;5.63;1.15;;;2.10;99.90;;;;;;5096734;28;20048;-62
2021/03/06 02:16:38;;;;;;;4.63;1.35;;;2.20;99.90;;;;;;5079451;28;20044;-63
2021/03/06 02:23:22;;;;;;;3.90;1.17;;;2.20;99.90;;;;;;5095981;28;20563;-62
2021/03/06 02:26:04;;;;;;;4.55;0.93;;;2.30;99.90;;;;;;5096383;28;20083;-62
2021/03/06 02:28:58;;;;;;;3.28;1.13;;;2.30;99.90;;;;;;5096018;28;20036;-62
2021/03/06 02:31:47;;;;;;;1.77;0.88;;;2.30;99.90;;;;;;5091991;28;20036;-62
2021/03/06 02:34:45;;;;;;;4.65;1.02;;;2.30;99.90;;;;;;5096418;28;20042;-62
2021/03/06 02:40:46;;;;;;;3.03;0.98;;;2.40;99.90;;;;;;5092845;28;20070;-63
2021/03/06 02:43:26;;;;;;;3.95;1.17;;;2.40;99.90;;;;;;5090929;28;20066;-62
2021/03/06 02:45:55;;;;;;;1.58;0.55;;;2.40;99.90;;;;;;5076362;28;20079;-63
2021/03/06 02:48:22;;;;;;;4.43;1.00;;;2.40;99.90;;;;;;5077642;28;20052;-62
2021/03/06 02:50:54;;;;;;;1.80;0.90;;;2.40;99.90;;;;;;5095590;28;20044;-62
2021/03/06 02:53:23;;;;;;;4.05;0.93;;;2.40;99.90;;;;;;5095387;28;20043;-63
2021/03/06 02:56:08;;;;;;;3.65;1.35;;;2.40;99.90;;;;;;5085637;28;20116;-62
2021/03/06 02:59:11;;;;;;;4.57;1.00;;;2.50;99.90;;;;;;5077962;28;20052;-63
2021/03/06 03:06:02;;;;;;;2.20;0.88;;;2.50;99.90;;;;;;5095046;28;20067;-62
2021/03/06 03:16:03;;;;;;;5.63;0.90;;;2.60;99.90;;;;;;5075026;28;20094;-63
2021/03/06 03:18:44;;;;;;;5.88;1.27;;;2.60;99.90;;;;;;5091830;28;20040;-62
2021/03/06 03:21:32;;;;;;;3.92;1.25;;;2.60;99.90;;;;;;5095224;28;20075;-63
2021/03/06 03:28:22;;;;;;;1.65;0.80;;;2.60;99.90;;;;;;5089254;28;20403;-63
2021/03/06 03:30:59;;;;;;;2.90;0.70;;;2.70;99.90;;;;;;5094654;28;20040;-62
2021/03/06 03:33:35;;;;;;;1.65;1.00;;;2.70;99.90;;;;;;5094911;28;20494;-63
2021/03/06 03:36:04;;;;;;;5.03;1.00;;;2.70;99.90;;;;;;5089904;28;20052;-63
2021/03/06 03:38:31;;;;;;;3.72;1.05;;;2.70;99.90;;;;;;5092379;28;20062;-64
2021/03/06 03:41:07;;;;;;;1.90;0.80;;;2.70;99.90;;;;;;5094778;28;20379;-63
2021/03/06 03:44:06;;;;;;;3.47;1.00;;;2.70;99.90;;;;;;5094626;28;20497;-63
2021/03/06 03:46:34;;;;;;;4.78;1.05;;;2.70;99.90;;;;;;5091174;28;20044;-63
2021/03/06 03:49:20;;;;;;;2.78;0.90;;;2.70;99.90;;;;;;5078770;28;20043;-63
2021/03/06 03:55:56;;;;;;;1.92;0.73;;;2.80;99.90;;;;;;5094072;28;20085;-63
2021/03/06 03:58:34;;;;;;;4.82;1.27;;;2.80;99.90;;;;;;5092588;28;20043;-62
2021/03/06 04:01:02;;;;;;;2.70;0.85;;;2.80;99.90;;;;;;5094238;28;20042;-63
2021/03/06 04:03:35;;;;;;;2.83;0.85;;;2.90;99.90;;;;;;5076241;28;20106;-62
2021/03/06 04:06:02;;;;;;;3.10;1.20;;;2.90;99.90;;;;;;5076400;28;20055;-62
2021/03/06 04:08:32;;;;;;;3.05;1.00;;;2.80;99.90;;;;;;5094012;28;20048;-64
2021/03/06 04:11:01;;;;;;;3.00;0.88;;;2.90;99.90;;;;;;5094276;28;20044;-63
2021/03/06 04:13:27;;;;;;;1.40;0.80;;;2.90;99.90;;;;;;5093767;28;20051;-64
2021/03/06 04:16:15;;;;;;;2.15;0.90;;;2.80;99.90;;;;;;5094161;28;20040;-63
2021/03/06 04:18:46;;;;;;;3.22;1.00;;;2.80;99.90;;;;;;5075398;28;20506;-63
2021/03/06 04:21:32;;;;;;;5.22;1.88;;;2.90;99.90;;;;;;5093895;28;20040;-62
2021/03/06 04:24:04;;;;;;;4.03;0.93;;;2.80;99.90;;;;;;5094076;28;20557;-62
2021/03/06 04:26:36;;;;;;;2.45;0.70;;;2.80;99.90;;;;;;5093890;28;20044;-63
2021/03/06 04:29:18;;;;;;;2.42;1.02;;;2.80;99.90;;;;;;5093909;28;20052;-62
2021/03/06 04:32:05;;;;;;;2.38;1.10;;;2.80;99.90;;;;;;5093763;28;20131;-63
2021/03/06 04:34:43;;;;;;;3.33;1.00;;;2.80;99.90;;;;;;5093881;28;20036;-63
2021/03/06 04:44:46;;;;;;;4.82;1.30;;;2.90;99.90;;;;;;5082870;28;20038;-62
2021/03/06 04:51:04;;;;;;;1.70;0.80;;;2.80;99.90;;;;;;5093199;28;20112;-62
2021/03/06 04:53:35;;;;;;;4.53;1.05;;;3.00;99.90;;;;;;5092662;28;20491;-62
2021/03/06 04:56:02;;;;;;;5.93;1.00;;;3.00;99.90;;;;;;5087109;28;20040;-63
2021/03/06 04:58:34;;;;;;;4.50;1.00;;;3.00;99.90;;;;;;5093160;28;20403;-63
2021/03/06 05:01:09;;;;;;;7.10;1.00;;;3.00;99.90;;;;;;5088204;28;20068;-62
2021/03/06 05:03:42;;;;;;;3.67;1.27;;;3.00;99.90;;;;;;5090668;28;20053;-62
2021/03/06 05:06:25;;;;;;;3.47;0.98;;;3.00;99.90;;;;;;5093178;28;20044;-63
2021/03/06 05:08:58;;;;;;;3.55;0.93;;;3.00;99.90;;;;;;5093267;28;20036;-62
2021/03/06 05:11:40;;;;;;;2.35;1.00;;;3.00;99.90;;;;;;5093111;28;20074;-63
2021/03/06 05:14:11;;;;;;;4.13;1.02;;;3.00;99.90;;;;;;5078047;28;20036;-62
2021/03/06 05:16:37;;;;;;;3.40;0.95;;;3.00;99.90;;;;;;5093614;28;20040;-62
2021/03/06 05:23:28;;;;;;;1.08;0.60;;;3.00;99.90;;;;;;5093074;28;20123;-63
2021/03/06 05:26:04;;;;;;;3.55;0.90;;;3.00;99.90;;;;;;5093322;28;20139;-63
2021/03/06 05:28:36;;;;;;;3.00;0.90;;;3.10;99.90;;;;;;5084162;28;20040;-63
2021/03/06 05:31:08;;;;;;;3.00;0.98;;;3.10;99.90;;;;;;5092900;28;20040;-62
2021/03/06 05:33:39;;;;;;;2.45;1.10;;;3.10;99.90;;;;;;5092813;28;20040;-62
2021/03/06 05:36:21;;;;;;;1.55;0.80;;;3.10;99.90;;;;;;5093159;28;20052;-63
2021/03/06 05:38:56;;;;;;;3.95;0.90;;;3.10;99.90;;;;;;5092847;28;20467;-63
2021/03/06 05:42:15;;;;;;;3.45;0.95;;;3.10;99.90;;;;;;5052967;28;20161;-62
2021/03/06 05:48:30;;;;;;;2.15;0.65;;;3.10;99.90;;;;;;5053070;28;20056;-63
2021/03/06 05:51:06;;;;;;;2.50;0.70;;;3.10;99.90;;;;;;5052633;28;20045;-62
2021/03/06 05:53:32;;;;;;;1.95;0.98;;;3.30;99.90;;;;;;5051254;28;20048;-62
2021/03/06 05:56:06;;;;;;;3.67;0.80;;;3.20;99.90;;;;;;5051450;28;20133;-63
2021/03/06 05:58:42;;;;;;;4.20;0.70;;;3.10;99.90;;;;;;5052737;28;20108;-63
2021/03/06 06:01:20;;;;;;;2.88;0.90;;;3.10;99.90;;;;;;5052557;28;20583;-62
2021/03/06 06:04:09;;;;;;;2.90;0.80;;;3.20;99.90;;;;;;5051355;28;20045;-62
2021/03/06 06:06:44;;;;;;;4.57;1.00;;;3.20;99.90;;;;;;5052496;28;20122;-63
2021/03/06 06:09:16;;;;;;;4.18;1.10;;;3.10;99.90;;;;;;5052429;28;20041;-63
2021/03/06 06:16:05;;;;;;;1.60;0.60;;;3.20;99.90;;;;;;5056083;28;20550;-62
2021/03/06 06:18:37;;;;;;;4.63;0.80;;;3.20;99.90;;;;;;5056150;28;20045;-63
2021/03/06 06:36:09;;;;;;;2.40;0.65;;;3.20;99.90;;;;;;5053203;28;20044;-63
2021/03/06 06:38:44;;;;;;;2.53;0.80;;;3.20;99.90;;;;;;5055003;28;20048;-63
2021/03/06 06:41:15;;;;;;;4.57;1.00;;;3.20;99.90;;;;;;5074254;28;20049;-62
2021/03/06 06:43:43;;;;;;;3.20;1.10;;;3.30;99.90;;;;;;5094070;28;20044;-62
2021/03/06 06:53:34;;;;;;;3.13;0.85;;;3.20;99.90;;;;;;5095162;28;20085;-63
2021/03/06 06:56:26;;;;;;;1.75;0.70;;;3.30;99.90;;;;;;5088229;28;20056;-63
2021/03/06 06:59:28;;;;;;;2.58;0.73;;;3.30;99.90;;;;;;5076166;28;20052;-62
2021/03/06 07:02:22;;;;;;;1.27;0.65;;;3.20;99.90;;;;;;5095679;28;20056;-62
2021/03/06 07:05:10;;;;;;;1.52;0.57;;;3.30;99.90;;;;;;5088862;28;20044;-63
2021/03/06 07:11:33;;;;;;;5.05;0.85;;;3.30;99.90;;;;;;5095360;28;20077;-63
2021/03/06 07:14:12;;;;;;;4.05;0.75;;;3.40;99.90;;;;;;5086851;28;20097;-63
2021/03/06 07:17:03;;;;;;;1.45;0.77;;;3.30;99.90;;;;;;5091263;28;20040;-63
2021/03/06 07:23:51;;;;;;;2.60;0.70;;;3.40;99.90;;;;;;5094886;28;20035;-63
2021/03/06 07:26:27;;;;;;;2.40;0.75;;;3.40;99.90;;;;;;5075207;28;20048;-63
2021/03/06 07:28:56;;;;;;;4.55;0.90;;;3.50;99.90;;;;;;5086487;28;20404;-63
2021/03/06 07:31:28;;;;;;;3.38;0.90;;;3.40;99.90;;;;;;5094897;28;20441;-63
2021/03/06 07:33:56;;;;;;;2.78;0.90;;;3.40;99.90;;;;;;5075236;28;20044;-63
2021/03/06 07:36:28;;;;;;;2.45;0.82;;;3.50;99.90;;;;;;5094640;28;20044;-62
2021/03/06 07:39:01;;;;;;;1.27;0.70;;;3.50;99.90;;;;;;5094725;28;20044;-63
2021/03/06 07:41:38;;;;;;;1.75;0.70;;;3.60;99.90;;;;;;5053407;28;20443;-62
2021/03/06 07:44:07;;;;;;;1.50;0.80;;;3.60;99.90;;;;;;5054417;28;20120;-63
2021/03/06 07:46:41;;;;;;;1.83;0.70;;;3.60;99.90;;;;;;5036122;28;20176;-62
2021/03/06 07:49:12;;;;;;;2.83;0.77;;;3.60;99.90;;;;;;5054206;28;20048;-63
2021/03/06 07:51:59;;;;;;;1.73;0.70;;;3.70;99.90;;;;;;5054245;28;20048;-62
2021/03/06 07:58:52;;;;;;;1.17;0.60;;;3.80;99.90;;;;;;5054187;28;20032;-62
2021/03/06 08:01:28;;;;;;;0.75;0.40;;;3.90;99.90;;;;;;5049523;28;20060;-63
2021/03/06 08:03:56;;;;;;;1.60;0.47;;;3.90;99.90;;;;;;5053897;28;20121;-62
2021/03/06 08:06:27;;;;;;;1.70;0.70;;;4.00;99.90;;;;;;5054203;28;20120;-63
2021/03/06 08:08:58;;;;;;;4.45;0.60;;;4.00;99.90;;;;;;5034507;28;20474;-62
2021/03/06 08:11:34;;;;;;;1.65;0.70;;;4.10;99.90;;;;;;5054024;28;20068;-63
2021/03/06 08:14:06;;;;;;;1.83;0.50;;;4.20;99.90;;;;;;5034835;28;20124;-63
2021/03/06 08:16:59;;;;;;;3.13;0.80;;;4.20;99.90;;;;;;5053712;28;20041;-62
2021/03/06 08:23:57;;;;;;;2.20;0.85;;;4.20;99.90;;;;;;5053201;28;20079;-63
2021/03/06 08:34:37;;;;;;;5.28;1.50;;;4.40;99.90;;;;;;5034760;28;20140;-63
2021/03/06 08:41:37;;;;;;;3.15;0.73;;;4.50;99.90;;;;;;5082451;28;20083;-63
2021/03/06 08:44:04;;;;;;;1.83;0.82;;;4.60;99.90;;;;;;5093606;28;20084;-62
2021/03/06 08:46:40;;;;;;;3.17;1.20;;;4.60;99.90;;;;;;5075756;28;20044;-63
2021/03/06 08:49:12;;;;;;;2.13;1.00;;;4.60;99.90;;;;;;5087633;28;20046;-63
2021/03/06 08:51:44;;;;;;;5.40;1.10;;;4.60;99.90;;;;;;5084948;28;20503;-63
2021/03/06 08:54:24;;;;;;;2.97;0.93;;;4.60;99.90;;;;;;5093888;28;20154;-63
2021/03/06 09:04:04;;;;;;;3.63;1.10;;;4.60;99.90;;;;;;5093174;28;20040;-63
2021/03/06 09:06:40;;;;;;;6.43;0.82;;;4.70;99.90;;;;;;5093542;28;20119;-63
2021/03/06 09:09:10;;;;;;;2.67;0.77;;;4.80;99.90;;;;;;5093115;28;20036;-63
2021/03/06 09:12:25;;;;;;;3.40;0.85;;;4.80;99.90;;;;;;5073189;28;20060;-62
2021/03/06 09:19:03;;;;;;;4.65;0.85;;;5.10;99.90;;;;;;5092732;28;20077;-63
2021/03/06 09:21:35;;;;;;;1.67;0.60;;;5.20;99.90;;;;;;5073158;28;20041;-63
2021/03/06 09:24:09;;;;;;;0.85;0.35;;;5.40;99.90;;;;;;5070437;28;20055;-63
2021/03/06 09:26:50;;;;;;;2.08;0.47;;;5.30;99.90;;;;;;5093268;28;20041;-63
2021/03/06 09:29:29;;;;;;;1.58;0.40;;;5.50;99.90;;;;;;5075799;28;20478;-62
2021/03/06 09:32:01;;;;;;;3.08;0.73;;;5.40;99.90;;;;;;5093066;28;20083;-63
2021/03/06 09:34:34;;;;;;;1.42;0.55;;;5.50;99.90;;;;;;5092833;28;20092;-63
2021/03/06 09:37:21;;;;;;;3.35;0.40;;;5.50;99.90;;;;;;5076561;28;20040;-63
2021/03/06 09:39:47;;;;;;;3.15;0.80;;;5.50;99.90;;;;;;5077353;28;20407;-63
2021/03/06 09:42:17;;;;;;;0.90;0.40;;;5.60;99.90;;;;;;5074788;28;20051;-63
2021/03/06 09:49:06;;;;;;;1.75;0.50;;;5.60;99.90;;;;;;5096582;28;20038;-63
2021/03/06 09:51:47;;;;;;;0.85;0.30;;;5.60;99.90;;;;;;5096183;28;20036;-63
2021/03/06 09:54:35;;;;;;;1.15;0.43;;;5.70;99.90;;;;;;5077190;28;20087;-63
2021/03/06 09:57:31;;;;;;;1.75;0.73;;;5.70;99.90;;;;;;5096617;28;20062;-63
2021/03/06 10:00:04;;;;;;;2.45;0.40;;;5.70;99.90;;;;;;5083151;28;20131;-63
2021/03/06 10:06:38;;;;;;;3.05;0.70;;;5.80;99.90;;;;;;5096416;28;20035;-63
2021/03/06 10:09:14;;;;;;;1.83;0.70;;;5.90;99.90;;;;;;5091371;28;20046;-63
2021/03/06 10:19:14;;;;;;;6.45;0.90;;;6.10;99.90;;;;;;5096022;28;20165;-63
2021/03/06 10:22:05;;;;;;;1.55;0.50;;;6.10;99.90;;;;;;5096190;28;20071;-62
2021/03/06 10:24:58;;;;;;;1.45;0.50;;;6.10;99.90;;;;;;5096385;28;20036;-63
2021/03/06 10:31:38;;;;;;;1.40;0.65;;;6.20;99.90;;;;;;5096106;28;20031;-63
2021/03/06 10:34:27;;;;;;;5.07;1.50;;;6.20;99.90;;;;;;5076179;28;20049;-63
2021/03/06 10:37:16;;;;;;;1.55;0.55;;;6.20;99.90;;;;;;5077922;28;20052;-63
2021/03/06 10:40:03;;;;;;;1.90;0.65;;;6.20;99.90;;;;;;5080134;28;20123;-64
2021/03/06 10:46:39;;;;;;;6.32;1.23;;;6.20;99.90;;;;;;5095977;28;20113;-64
2021/03/06 10:49:33;;;;;;;4.55;0.52;;;6.10;99.90;;;;;;5075787;28;20043;-63
2021/03/06 10:52:10;;;;;;;4.05;0.88;;;6.20;99.90;;;;;;5076979;28;20036;-63
2021/03/06 10:54:58;;;;;;;4.63;0.80;;;6.20;99.90;;;;;;5095866;28;20051;-63
2021/03/06 10:57:28;;;;;;;4.15;0.90;;;6.20;99.90;;;;;;5095104;28;20051;-63
2021/03/06 11:00:33;;;;;;;2.15;0.85;;;6.30;99.90;;;;;;5095712;28;20040;-63
2021/03/06 11:06:59;;;;;;;2.00;0.60;;;6.40;99.90;;;;;;5032843;28;20550;-63
2021/03/06 11:09:39;;;;;;;2.85;0.60;;;6.50;99.90;;;;;;5016771;28;20053;-63
2021/03/06 11:12:31;;;;;;;1.70;0.70;;;6.50;99.90;;;;;;5028248;28;20041;-63
2021/03/06 11:22:33;;;;;;;1.50;0.75;;;6.50;99.90;;;;;;5095134;28;20031;-63
2021/03/06 11:29:21;;;;;;;2.40;0.80;;;6.50;99.90;;;;;;5080049;28;20086;-63
2021/03/06 11:31:57;;;;;;;2.72;0.93;;;6.50;99.90;;;;;;5094735;28;20048;-63
2021/03/06 11:34:29;;;;;;;3.10;1.10;;;6.40;99.90;;;;;;5093246;28;20048;-64
2021/03/06 11:37:19;;;;;;;6.55;1.17;;;6.30;99.90;;;;;;5094865;28;20093;-63
2021/03/06 11:39:44;;;;;;;4.65;0.90;;;6.30;99.90;;;;;;5059839;28;20499;-63
2021/03/06 11:42:22;;;;;;;4.00;0.90;;;6.40;99.90;;;;;;5093513;28;20052;-63
2021/03/06 11:45:05;;;;;;;1.63;0.80;;;6.50;99.90;;;;;;5093321;28;20046;-63
2021/03/06 11:47:32;;;;;;;2.47;0.82;;;6.40;99.90;;;;;;5094952;28;20036;-63
2021/03/06 11:49:57;;;;;;;2.30;0.60;;;6.40;99.90;;;;;;5088641;28;20040;-63
2021/03/06 11:56:17;;;;;;;1.20;0.50;;;6.50;99.90;;;;;;5094405;28;20445;-63
2021/03/06 11:58:49;;;;;;;4.03;1.00;;;6.60;99.90;;;;;;5075205;28;20040;-63
2021/03/06 12:01:18;;;;;;;3.30;0.70;;;6.50;99.90;;;;;;5088887;28;20070;-63
2021/03/06 12:03:53;;;;;;;1.27;0.70;;;6.60;99.90;;;;;;5094213;28;20104;-63
2021/03/06 12:06:19;;;;;;;2.78;0.60;;;6.60;99.90;;;;;;5094064;28;20040;-62
2021/03/06 12:08:54;;;;;;;4.10;0.60;;;6.60;99.90;;;;;;5076047;28;20048;-63
2021/03/06 12:11:28;;;;;;;4.65;1.00;;;6.50;99.90;;;;;;5090174;28;20036;-63
2021/03/06 12:14:28;;;;;;;3.40;0.77;;;6.50;99.90;;;;;;5088241;28;20043;-63
2021/03/06 12:17:00;;;;;;;6.13;0.80;;;6.50;99.90;;;;;;5078824;28;20040;-63
2021/03/06 12:19:28;;;;;;;3.00;0.60;;;6.50;99.90;;;;;;5093767;28;20047;-63
2021/03/06 12:21:57;;;;;;;3.67;1.05;;;6.50;99.90;;;;;;5094403;28;20047;-63
2021/03/06 12:24:36;;;;;;;3.85;0.70;;;6.50;99.90;;;;;;5094253;28;20111;-63
2021/03/06 12:31:19;;;;;;;1.77;0.80;;;6.50;99.90;;;;;;5093772;28;20073;-63
2021/03/06 12:33:47;;;;;;;3.00;0.73;;;6.50;99.90;;;;;;5093881;28;20090;-63
2021/03/06 12:36:51;;;;;;;3.78;0.63;;;6.50;99.90;;;;;;5093932;28;20044;-63
2021/03/06 12:39:23;;;;;;;3.80;0.50;;;6.50;99.90;;;;;;5093683;28;20484;-63
2021/03/06 12:41:55;;;;;;;6.43;1.10;;;6.50;99.90;;;;;;5050426;28;20119;-63
2021/03/06 12:44:30;;;;;;;1.33;0.57;;;6.40;99.90;;;;;;5053615;28;20049;-64
2021/03/06 12:51:20;;;;;;;2.63;0.98;;;6.40;99.90;;;;;;5053200;28;20040;-63
2021/03/06 12:53:47;;;;;;;1.85;0.70;;;6.50;99.90;;;;;;5053300;28;20047;-63
2021/03/06 12:56:23;;;;;;;2.45;0.90;;;6.40;99.90;;;;;;5048885;28;20044;-63
2021/03/06 12:59:25;;;;;;;2.05;0.73;;;6.40;99.90;;;;;;5052072;28;20126;-62
2021/03/06 13:01:59;;;;;;;7.15;1.00;;;6.40;99.90;;;;;;5037836;28;20480;-63
2021/03/06 13:04:36;;;;;;;5.28;0.90;;;6.30;99.90;;;;;;5052930;28;20048;-63
2021/03/06 13:14:24;;;;;;;6.50;0.70;;;6.50;99.90;;;;;;5037885;28;20072;-63
2021/03/06 13:16:56;;;;;;;1.85;0.73;;;6.40;99.90;;;;;;5053492;28;20041;-63
2021/03/06 13:23:52;;;;;;;2.03;0.80;;;6.40;99.90;;;;;;5057083;28;20043;-63
2021/03/06 13:26:24;;;;;;;4.07;0.80;;;6.40;99.90;;;;;;5037150;28;20045;-63
2021/03/06 13:28:58;;;;;;;2.50;0.80;;;6.40;99.90;;;;;;5037241;28;20065;-63
2021/03/06 13:31:28;;;;;;;5.18;0.98;;;6.30;99.90;;;;;;5053152;28;20102;-64
2021/03/06 13:33:59;;;;;;;8.05;0.68;;;6.30;99.90;;;;;;5056817;28;20048;-62
2021/03/06 13:36:31;;;;;;;8.75;1.35;;;6.30;99.90;;;;;;5056796;28;20402;-63
2021/03/06 13:46:55;;;;;;;1.88;0.57;;;6.20;99.90;;;;;;5094782;28;20487;-63
2021/03/06 13:49:37;;;;;;;4.22;0.85;;;6.10;99.90;;;;;;5096500;28;20036;-63
2021/03/06 13:52:11;;;;;;;1.75;0.88;;;6.20;99.90;;;;;;5097652;28;20043;-63
2021/03/06 13:58:52;;;;;;;2.00;0.50;;;6.10;99.90;;;;;;5096662;28;20039;-63
2021/03/06 14:01:32;;;;;;;4.07;0.77;;;6.10;99.90;;;;;;5093784;28;20048;-63
2021/03/06 14:04:00;;;;;;;0.70;0.45;;;6.10;99.90;;;;;;5096751;28;20074;-63
2021/03/06 14:06:32;;;;;;;1.00;0.60;;;6.10;99.90;;;;;;5096443;28;20040;-63
2021/03/06 14:09:00;;;;;;;4.90;0.70;;;6.20;99.90;;;;;;5096475;28;20074;-63
2021/03/06 14:11:26;;;;;;;2.58;0.70;;;6.10;99.90;;;;;;5078565;28;20055;-63
2021/03/06 14:14:05;;;;;;;7.05;1.05;;;6.10;99.90;;;;;;5085470;28;20123;-63
2021/03/06 14:16:35;;;;;;;1.38;0.60;;;6.20;99.90;;;;;;5109730;28;20048;-63
2021/03/06 14:19:39;;;;;;;2.80;0.70;;;6.10;99.90;;;;;;5096338;28;20289;-63
2021/03/06 14:22:08;;;;;;;3.08;1.05;;;6.10;99.90;;;;;;5096879;28;20161;-63
2021/03/06 14:24:42;;;;;;;2.45;0.60;;;6.10;99.90;;;;;;5096128;28;20123;-62
2021/03/06 14:27:07;;;;;;;3.10;0.80;;;6.10;99.90;;;;;;5096086;28;20440;-63
2021/03/06 14:33:59;;;;;;;1.15;0.50;;;6.10;99.90;;;;;;5095929;28;20066;-63
2021/03/06 14:36:37;;;;;;;2.22;0.50;;;6.10;99.90;;;;;;5095933;28;20119;-63
2021/03/06 14:39:35;;;;;;;2.50;0.65;;;6.20;99.90;;;;;;5076321;28;20040;-62
2021/03/06 14:42:03;;;;;;;1.80;0.60;;;6.10;99.90;;;;;;5089823;28;20064;-63
2021/03/06 14:44:31;;;;;;;2.92;0.77;;;6.20;99.90;;;;;;5092016;28;20380;-63
2021/03/06 14:47:10;;;;;;;3.10;0.68;;;6.20;99.90;;;;;;5079446;28;20040;-63
2021/03/06 14:54:00;;;;;;;5.60;1.02;;;6.10;99.90;;;;;;5089822;28;20123;-63
2021/03/06 15:00:35;;;;;;;2.60;0.55;;;6.20;99.90;;;;;;5095351;28;20073;-63
2021/03/06 15:06:30;;;;;;;2.15;0.80;;;6.20;99.90;;;;;;5075349;28;20400;-63
2021/03/06 15:09:04;;;;;;;5.53;1.08;;;6.20;99.90;;;;;;5075341;28;20059;-63
2021/03/06 15:18:42;;;;;;;1.55;0.60;;;6.20;99.90;;;;;;5093407;28;20097;-63
2021/03/06 15:21:09;;;;;;;5.50;0.70;;;6.10;99.90;;;;;;5077114;28;20044;-64
2021/03/06 15:24:00;;;;;;;2.25;0.45;;;6.10;99.90;;;;;;5089839;28;20043;-63
2021/03/06 15:26:48;;;;;;;3.80;0.80;;;6.10;99.90;;;;;;5093745;28;20090;-63
2021/03/06 15:33:38;;;;;;;3.83;0.90;;;6.10;99.90;;;;;;5094597;28;20031;-63
2021/03/06 15:36:06;;;;;;;4.50;0.57;;;6.10;99.90;;;;;;5089419;28;20047;-63
2021/03/06 15:38:44;;;;;;;2.35;0.70;;;6.10;99.90;;;;;;5094870;28;20089;-63
2021/03/06 15:41:13;;;;;;;1.88;0.60;;;6.10;99.90;;;;;;5094517;28;20123;-63
2021/03/06 15:43:39;;;;;;;3.78;0.90;;;6.10;99.90;;;;;;5070420;28;20118;-64
2021/03/06 15:46:07;;;;;;;7.13;1.10;;;6.00;99.90;;;;;;5094936;28;20052;-63
2021/03/06 15:48:45;;;;;;;3.88;0.77;;;6.00;99.90;;;;;;5090023;28;20076;-63
2021/03/06 15:51:12;;;;;;;3.13;0.95;;;6.00;99.90;;;;;;5074891;28;20101;-62
2021/03/06 15:53:39;;;;;;;3.47;0.52;;;6.00;99.90;;;;;;5092708;28;20068;-63
2021/03/06 15:56:12;;;;;;;3.75;0.82;;;5.90;99.90;;;;;;5094578;28;20040;-63
2021/03/06 15:58:40;;;;;;;5.72;0.60;;;5.90;99.90;;;;;;5092545;28;20055;-62
2021/03/06 16:01:13;;;;;;;3.70;0.65;;;6.10;99.90;;;;;;5094701;28;20044;-63
2021/03/06 16:03:45;;;;;;;4.88;0.70;;;6.00;99.90;;;;;;5083367;28;20525;-63
2021/03/06 16:06:13;;;;;;;4.00;0.70;;;6.00;99.90;;;;;;5093918;28;20040;-62
2021/03/06 16:08:46;;;;;;;2.10;0.65;;;6.00;99.90;;;;;;5094309;28;20484;-63
2021/03/06 16:11:17;;;;;;;2.53;0.75;;;5.90;99.90;;;;;;5071642;28;20040;-63
2021/03/06 16:14:11;;;;;;;2.78;0.80;;;5.90;99.90;;;;;;5094313;28;20040;-63
2021/03/06 16:16:43;;;;;;;4.07;1.10;;;5.90;99.90;;;;;;5091751;28;20123;-63
2021/03/06 16:26:36;;;;;;;2.08;0.52;;;5.80;99.90;;;;;;5076847;28;20031;-63
2021/03/06 16:36:16;;;;;;;2.65;0.60;;;5.70;99.90;;;;;;5086398;28;20043;-62
2021/03/06 16:38:53;;;;;;;5.60;1.38;;;5.70;99.90;;;;;;5074036;28;20037;-63
2021/03/06 16:45:00;;;;;;;5.03;0.70;;;5.70;99.90;;;;;;5092601;28;20059;-63
2021/03/06 16:51:12;;;;;;;1.38;0.57;;;5.60;99.90;;;;;;5093023;28;20042;-63
2021/03/06 16:53:39;;;;;;;2.45;0.88;;;5.70;99.90;;;;;;5091290;28;20044;-62
2021/03/06 16:56:06;;;;;;;3.08;0.70;;;5.70;99.90;;;;;;5093464;28;20036;-63
2021/03/06 16:58:46;;;;;;;3.35;0.70;;;5.60;99.90;;;;;;5093526;28;20040;-63
2021/03/06 17:04:55;;;;;;;3.08;0.73;;;5.60;99.90;;;;;;5073133;28;20043;-63
2021/03/06 17:11:11;;;;;;;4.85;0.95;;;5.50;99.90;;;;;;5093037;28;20047;-63
2021/03/06 17:13:42;;;;;;;3.25;0.80;;;5.50;99.90;;;;;;5073067;28;20073;-62
2021/03/06 17:16:13;;;;;;;1.50;0.80;;;5.40;99.90;;;;;;5093219;28;20042;-63
2021/03/06 17:18:45;;;;;;;2.17;0.63;;;5.40;99.90;;;;;;5089359;28;20101;-63
2021/03/06 17:21:40;;;;;;;3.72;0.73;;;5.40;99.90;;;;;;5093123;28;20072;-62
2021/03/06 17:24:08;;;;;;;2.20;0.70;;;5.40;99.90;;;;;;5084343;28;20480;-63
2021/03/06 17:26:51;;;;;;;2.65;0.52;;;5.40;99.90;;;;;;5093034;28;20135;-63
2021/03/06 17:29:23;;;;;;;3.22;0.80;;;5.30;99.90;;;;;;5093048;28;20258;-63
2021/03/06 17:31:52;;;;;;;2.50;0.60;;;5.30;99.90;;;;;;5075812;28;20036;-62
2021/03/06 17:34:37;;;;;;;2.33;0.75;;;5.20;99.90;;;;;;5092806;28;20495;-63
2021/03/06 17:56:57;;;;;;;2.30;0.82;;;5.20;99.90;;;;;;5088636;28;20602;-63
2021/03/06 18:03:41;;;;;;;2.05;0.73;;;5.10;99.90;;;;;;5092805;28;20039;-63
2021/03/06 18:06:12;;;;;;;5.55;0.90;;;5.10;99.90;;;;;;5093580;28;20039;-63
2021/03/06 18:08:41;;;;;;;2.22;0.70;;;5.10;99.90;;;;;;5076573;28;20048;-63
2021/03/06 18:11:16;;;;;;;5.30;0.82;;;5.00;99.90;;;;;;5096435;28;20040;-62
2021/03/06 18:13:48;;;;;;;4.85;1.00;;;5.00;99.90;;;;;;5093106;28;20036;-63
2021/03/06 18:16:41;;;;;;;4.03;1.30;;;5.00;99.90;;;;;;5096479;28;20044;-63
2021/03/06 18:23:36;;;;;;;7.63;2.15;;;5.00;99.90;;;;;;5095905;28;20074;-63
2021/03/06 18:26:08;;;;;;;7.15;2.28;;;5.00;99.90;;;;;;5096579;28;20129;-63
2021/03/06 18:28:46;;;;;;;4.03;1.50;;;5.00;99.90;;;;;;5096245;28;20048;-63
2021/03/06 18:31:19;;;;;;;3.53;1.50;;;4.90;99.90;;;;;;5090964;28;20036;-63
2021/03/06 18:33:48;;;;;;;5.22;1.88;;;4.90;99.90;;;;;;5095647;28;20036;-63
2021/03/06 18:36:15;;;;;;;2.83;1.33;;;4.90;99.90;;;;;;5096118;28;20052;-63
2021/03/06 18:38:43;;;;;;;7.00;1.60;;;4.90;99.90;;;;;;5095847;28;20429;-63
2021/03/06 18:41:15;;;;;;;4.57;1.65;;;4.90;99.90;;;;;;5096126;28;20052;-63
2021/03/06 18:43:50;;;;;;;4.40;1.70;;;4.90;99.90;;;;;;5095612;28;20052;-62
2021/03/06 18:46:15;;;;;;;3.13;1.05;;;4.90;99.90;;;;;;5094606;28;20127;-63
2021/03/06 18:49:06;;;;;;;3.42;1.10;;;4.80;99.90;;;;;;5095691;28;20517;-62
2021/03/06 18:51:33;;;;;;;3.25;1.60;;;4.80;99.90;;;;;;5077479;28;20036;-63
2021/03/06 18:54:19;;;;;;;5.75;1.60;;;4.80;99.90;;;;;;5095490;28;20154;-63
2021/03/06 18:56:48;;;;;;;3.95;1.67;;;4.70;99.90;;;;;;5080755;28;20040;-63
2021/03/06 18:59:20;;;;;;;4.05;1.30;;;4.70;99.90;;;;;;5080275;28;20075;-63